Time;durP1;ratioP1;P1;durP2;ratioP2;P2;SDS_P1;SDS_P2;PMS_P1;PMS_P2;Temp;Humidity;BMP_temperature;BMP_pressure;BME280_temperature;BME280_humidity;BME280_pressure;Samples;Min_cycle;Max_cycle;Signal;HPM_P1;HPM_P2
2024/01/22 00:02:23;;;;;;;17.80;11.32;;;;;;;;;;4994790;28;20046;-68
2024/01/22 00:04:49;;;;;;;21.92;11.90;;;;;;;;;;5022060;28;20046;-68
2024/01/22 00:07:15;;;;;;;18.58;12.38;;;;;;;;;;5019653;28;20414;-68
2024/01/22 00:09:41;;;;;;;14.77;10.13;;;;;;;;;;4989141;28;20065;-68
2024/01/22 00:12:07;;;;;;;17.75;11.68;;;;;;;;;;4986483;28;20053;-67
2024/01/22 00:14:33;;;;;;;17.92;11.05;;;;;;;;;;4986698;28;20050;-68
2024/01/22 00:16:59;;;;;;;13.93;9.82;;;;;;;;;;4988549;28;20046;-68
2024/01/22 00:19:25;;;;;;;15.48;10.63;;;;;;;;;;4986818;28;20133;-68
2024/01/22 00:21:51;;;;;;;16.20;11.02;;;;;;;;;;4981695;28;20072;-68
2024/01/22 00:24:17;;;;;;;17.08;11.02;;;;;;;;;;5020662;28;20065;-68
2024/01/22 00:26:43;;;;;;;19.35;11.32;;;;;;;;;;4985952;28;20421;-67
2024/01/22 00:29:09;;;;;;;15.18;11.65;;;;;;;;;;4987920;28;20043;-68
2024/01/22 00:31:35;;;;;;;18.60;12.43;;;;;;;;;;4989390;28;20045;-68
2024/01/22 00:34:04;;;;;;;14.68;10.82;;;;;;;;;;4990445;28;20693;-68
2024/01/22 00:36:30;;;;;;;16.00;11.10;;;;;;;;;;4985319;28;20046;-68
2024/01/22 00:38:56;;;;;;;23.95;11.07;;;;;;;;;;4984207;28;20829;-68
2024/01/22 00:41:22;;;;;;;21.55;12.70;;;;;;;;;;4984969;28;20074;-68
2024/01/22 00:43:48;;;;;;;20.23;11.43;;;;;;;;;;4982855;28;20089;-67
2024/01/22 00:46:14;;;;;;;19.65;12.18;;;;;;;;;;5016251;28;20100;-68
2024/01/22 00:48:40;;;;;;;14.80;11.05;;;;;;;;;;4980411;28;20045;-68
2024/01/22 00:51:06;;;;;;;19.60;11.98;;;;;;;;;;4981880;28;20046;-68
2024/01/22 00:53:32;;;;;;;16.70;11.35;;;;;;;;;;4990788;28;20049;-68
2024/01/22 00:55:58;;;;;;;15.20;10.23;;;;;;;;;;4987579;28;20071;-68
2024/01/22 00:58:24;;;;;;;16.05;12.40;;;;;;;;;;4987150;28;20042;-68
2024/01/22 01:00:50;;;;;;;13.85;9.27;;;;;;;;;;4981733;28;20046;-68
2024/01/22 01:03:16;;;;;;;14.65;9.88;;;;;;;;;;4986011;28;20514;-68
2024/01/22 01:05:42;;;;;;;18.02;12.85;;;;;;;;;;5020799;28;20173;-68
2024/01/22 01:08:11;;;;;;;19.80;11.75;;;;;;;;;;5019461;28;20136;-68
2024/01/22 01:10:37;;;;;;;19.00;10.18;;;;;;;;;;4986464;28;20140;-68
2024/01/22 01:13:03;;;;;;;15.80;10.55;;;;;;;;;;4992023;28;20050;-68
2024/01/22 01:15:29;;;;;;;16.83;10.40;;;;;;;;;;4986175;28;20061;-68
2024/01/22 01:17:55;;;;;;;16.60;9.85;;;;;;;;;;4991500;28;20383;-68
2024/01/22 01:20:24;;;;;;;11.43;8.20;;;;;;;;;;4995634;28;20050;-68
2024/01/22 01:22:50;;;;;;;12.65;8.43;;;;;;;;;;4992531;28;20096;-68
2024/01/22 01:25:16;;;;;;;14.85;10.07;;;;;;;;;;4991530;28;20042;-68
2024/01/22 01:27:42;;;;;;;15.65;9.65;;;;;;;;;;4994142;28;20043;-68
2024/01/22 01:30:10;;;;;;;12.93;8.68;;;;;;;;;;4993978;28;20046;-68
2024/01/22 01:32:36;;;;;;;13.63;9.40;;;;;;;;;;4990557;28;20050;-68
2024/01/22 01:35:02;;;;;;;15.57;8.95;;;;;;;;;;4990367;28;20125;-68
2024/01/22 01:37:28;;;;;;;14.20;9.65;;;;;;;;;;4993180;28;20121;-68
2024/01/22 01:39:54;;;;;;;17.27;8.63;;;;;;;;;;4989362;28;20074;-68
2024/01/22 01:42:20;;;;;;;16.27;9.35;;;;;;;;;;4991092;28;20080;-68
2024/01/22 01:44:50;;;;;;;13.60;9.40;;;;;;;;;;4989639;28;20368;-68
2024/01/22 01:47:17;;;;;;;13.10;8.45;;;;;;;;;;4988908;28;20077;-68
2024/01/22 01:49:43;;;;;;;14.80;9.55;;;;;;;;;;4991662;28;20050;-68
2024/01/22 01:52:11;;;;;;;11.25;8.25;;;;;;;;;;4994403;28;20057;-68
2024/01/22 01:54:37;;;;;;;15.38;8.50;;;;;;;;;;4985515;28;20050;-68
2024/01/22 01:57:05;;;;;;;15.90;8.48;;;;;;;;;;4990441;28;20083;-68
2024/01/22 01:59:31;;;;;;;12.18;9.23;;;;;;;;;;4993292;28;20236;-68
2024/01/22 02:01:57;;;;;;;13.40;9.18;;;;;;;;;;4992061;28;20049;-68
2024/01/22 02:04:23;;;;;;;9.88;8.02;;;;;;;;;;5024563;28;20039;-68
2024/01/22 02:06:49;;;;;;;17.52;8.98;;;;;;;;;;4994323;28;20056;-68
2024/01/22 02:09:15;;;;;;;13.65;7.90;;;;;;;;;;4993134;28;20050;-68
2024/01/22 02:11:41;;;;;;;10.80;8.18;;;;;;;;;;4989676;28;20057;-68
2024/01/22 02:14:10;;;;;;;13.70;7.93;;;;;;;;;;5020229;28;20372;-68
2024/01/22 02:16:36;;;;;;;13.50;6.70;;;;;;;;;;4985962;28;20125;-68
2024/01/22 02:19:05;;;;;;;9.80;6.65;;;;;;;;;;4991226;28;20046;-68
2024/01/22 02:21:31;;;;;;;9.55;6.47;;;;;;;;;;4988084;28;20054;-68
2024/01/22 02:23:57;;;;;;;11.10;6.70;;;;;;;;;;4990827;28;20057;-68
2024/01/22 02:26:23;;;;;;;9.85;6.57;;;;;;;;;;4987509;28;20050;-68
2024/01/22 02:28:49;;;;;;;10.13;6.65;;;;;;;;;;4994253;28;20418;-68
2024/01/22 02:31:16;;;;;;;10.32;6.72;;;;;;;;;;4995783;28;20128;-68
2024/01/22 02:33:42;;;;;;;13.68;7.13;;;;;;;;;;4989802;28;20556;-67
2024/01/22 02:36:11;;;;;;;9.63;6.10;;;;;;;;;;4991329;28;20065;-68
2024/01/22 02:38:37;;;;;;;8.10;6.43;;;;;;;;;;4990024;28;20053;-67
2024/01/22 02:41:03;;;;;;;12.05;5.57;;;;;;;;;;4988203;28;20050;-68
2024/01/22 02:43:29;;;;;;;11.00;5.70;;;;;;;;;;4989233;28;20398;-68
2024/01/22 02:45:55;;;;;;;10.07;5.57;;;;;;;;;;4986009;28;20050;-67
2024/01/22 02:48:21;;;;;;;9.05;5.53;;;;;;;;;;5021720;28;20057;-68
2024/01/22 02:50:47;;;;;;;9.00;5.50;;;;;;;;;;4985262;28;20042;-67
2024/01/22 02:53:13;;;;;;;11.73;6.47;;;;;;;;;;4983032;28;20540;-68
2024/01/22 02:55:39;;;;;;;8.63;5.72;;;;;;;;;;4984232;28;20390;-68
2024/01/22 02:58:05;;;;;;;6.90;4.80;;;;;;;;;;4985676;28;20127;-68
2024/01/22 03:00:31;;;;;;;9.35;6.30;;;;;;;;;;5019760;28;20093;-68
2024/01/22 03:02:57;;;;;;;9.35;6.13;;;;;;;;;;4990184;28;20514;-68
2024/01/22 03:05:23;;;;;;;11.48;6.22;;;;;;;;;;4990848;28;20046;-68
2024/01/22 03:07:49;;;;;;;8.02;5.55;;;;;;;;;;4985791;28;20132;-68
2024/01/22 03:10:15;;;;;;;9.10;5.07;;;;;;;;;;5022864;28;20129;-68
2024/01/22 03:12:42;;;;;;;11.82;5.72;;;;;;;;;;4991303;28;20057;-69
2024/01/22 03:15:09;;;;;;;7.72;4.53;;;;;;;;;;4984319;28;20043;-68
2024/01/22 03:17:35;;;;;;;10.15;5.10;;;;;;;;;;4991709;28;20117;-68
2024/01/22 03:20:04;;;;;;;6.80;4.60;;;;;;;;;;4988880;28;20080;-68
2024/01/22 03:22:33;;;;;;;10.02;4.43;;;;;;;;;;5021492;28;20046;-68
2024/01/22 03:24:59;;;;;;;9.32;4.10;;;;;;;;;;4988996;28;20506;-68
2024/01/22 03:27:25;;;;;;;6.82;3.85;;;;;;;;;;4990197;28;20042;-68
2024/01/22 03:29:51;;;;;;;8.43;4.18;;;;;;;;;;4989529;28;20116;-68
2024/01/22 03:32:17;;;;;;;7.38;4.22;;;;;;;;;;4987977;28;20486;-68
2024/01/22 03:34:43;;;;;;;6.47;3.65;;;;;;;;;;4988791;28;20138;-68
2024/01/22 03:37:09;;;;;;;5.53;3.53;;;;;;;;;;5019635;28;20058;-68
2024/01/22 03:39:35;;;;;;;6.97;3.53;;;;;;;;;;4984767;28;20586;-68
2024/01/22 03:42:01;;;;;;;7.55;3.58;;;;;;;;;;4987897;28;20046;-68
2024/01/22 03:44:28;;;;;;;5.18;3.00;;;;;;;;;;4991106;28;20471;-68
2024/01/22 03:46:54;;;;;;;5.05;3.13;;;;;;;;;;4984688;28;20073;-68
2024/01/22 03:49:20;;;;;;;3.50;3.05;;;;;;;;;;4987335;28;20127;-69
2024/01/22 03:51:46;;;;;;;7.65;3.15;;;;;;;;;;4986987;28;20121;-68
2024/01/22 03:54:12;;;;;;;5.68;2.70;;;;;;;;;;4984938;28;20530;-68
2024/01/22 03:56:38;;;;;;;5.07;3.03;;;;;;;;;;4989233;28;20046;-68
2024/01/22 03:59:04;;;;;;;34.38;3.42;;;;;;;;;;4987918;28;20065;-68
2024/01/22 04:01:30;;;;;;;5.43;2.80;;;;;;;;;;4986348;28;20100;-69
2024/01/22 04:03:56;;;;;;;5.97;3.13;;;;;;;;;;4984969;28;20774;-68
2024/01/22 04:06:22;;;;;;;4.05;2.75;;;;;;;;;;4989739;28;20038;-68
2024/01/22 04:08:48;;;;;;;3.55;2.65;;;;;;;;;;4982079;28;20034;-68
2024/01/22 04:11:14;;;;;;;5.75;2.60;;;;;;;;;;4983814;28;20721;-68
2024/01/22 04:13:40;;;;;;;5.32;2.53;;;;;;;;;;5017612;28;20034;-68
2024/01/22 04:16:06;;;;;;;4.70;2.65;;;;;;;;;;4991462;28;20509;-68
2024/01/22 04:18:32;;;;;;;6.40;2.42;;;;;;;;;;4989849;28;20494;-68
2024/01/22 04:20:58;;;;;;;2.67;2.35;;;;;;;;;;4988108;28;20443;-68
2024/01/22 04:23:24;;;;;;;5.78;2.80;;;;;;;;;;4991928;28;20132;-68
2024/01/22 04:25:50;;;;;;;5.57;2.95;;;;;;;;;;4989084;28;20100;-68
2024/01/22 04:28:16;;;;;;;3.97;2.53;;;;;;;;;;4987994;28;20046;-68
2024/01/22 04:30:43;;;;;;;6.10;2.83;;;;;;;;;;4991195;28;20689;-68
2024/01/22 04:33:09;;;;;;;3.55;2.30;;;;;;;;;;4989049;28;20051;-68
2024/01/22 04:35:35;;;;;;;7.72;3.20;;;;;;;;;;4990206;28;20107;-68
2024/01/22 04:38:01;;;;;;;6.82;2.92;;;;;;;;;;4988436;28;20464;-67
2024/01/22 04:40:27;;;;;;;8.60;3.65;;;;;;;;;;4977915;28;20046;-68
2024/01/22 04:42:53;;;;;;;9.50;2.88;;;;;;;;;;4989935;28;20042;-68
2024/01/22 04:45:19;;;;;;;5.72;3.22;;;;;;;;;;4992244;28;20099;-68
2024/01/22 04:47:45;;;;;;;5.65;2.63;;;;;;;;;;4995168;28;20069;-68
2024/01/22 04:50:11;;;;;;;8.27;3.40;;;;;;;;;;4994981;28;20043;-68
2024/01/22 04:52:37;;;;;;;9.40;3.38;;;;;;;;;;4994707;28;20089;-68
2024/01/22 04:55:03;;;;;;;10.95;3.15;;;;;;;;;;5023579;28;20056;-68
2024/01/22 04:57:29;;;;;;;10.20;3.35;;;;;;;;;;4991489;28;20410;-68
2024/01/22 04:59:55;;;;;;;10.23;3.35;;;;;;;;;;5014698;28;20052;-68
2024/01/22 05:02:27;;;;;;;10.32;3.47;;;;;;;;;;5019477;28;20060;-68
2024/01/22 05:04:54;;;;;;;11.95;3.42;;;;;;;;;;5020218;28;20409;-68
2024/01/22 05:07:20;;;;;;;6.47;2.67;;;;;;;;;;4985043;28;20057;-68
2024/01/22 05:09:46;;;;;;;8.52;3.40;;;;;;;;;;5017582;28;20050;-68
2024/01/22 05:12:12;;;;;;;8.90;3.45;;;;;;;;;;4986442;28;20061;-68
2024/01/22 05:14:40;;;;;;;12.40;4.15;;;;;;;;;;5016128;28;20047;-67
2024/01/22 05:17:07;;;;;;;13.15;4.28;;;;;;;;;;5017573;28;20054;-68
2024/01/22 05:19:33;;;;;;;9.57;3.30;;;;;;;;;;4987395;28;20054;-67
2024/01/22 05:21:59;;;;;;;9.88;3.42;;;;;;;;;;4985355;28;20502;-68
2024/01/22 05:24:25;;;;;;;12.35;3.95;;;;;;;;;;4993252;28;20046;-68
2024/01/22 05:26:51;;;;;;;11.05;4.40;;;;;;;;;;4993775;28;20046;-68
2024/01/22 05:29:17;;;;;;;7.00;2.70;;;;;;;;;;4990793;28;20475;-68
2024/01/22 05:31:43;;;;;;;14.30;3.75;;;;;;;;;;4991217;28;20078;-68
2024/01/22 05:34:09;;;;;;;19.55;4.43;;;;;;;;;;4991535;28;20130;-68
2024/01/22 05:36:37;;;;;;;12.93;4.15;;;;;;;;;;4989360;28;20065;-68
2024/01/22 05:39:06;;;;;;;18.50;4.18;;;;;;;;;;4984181;28;20046;-68
2024/01/22 05:41:32;;;;;;;14.50;4.45;;;;;;;;;;4989702;28;20060;-68
2024/01/22 05:43:58;;;;;;;22.75;4.82;;;;;;;;;;4989959;28;20125;-68
2024/01/22 05:46:24;;;;;;;13.85;3.63;;;;;;;;;;4991405;28;20056;-68
2024/01/22 05:48:50;;;;;;;13.65;4.18;;;;;;;;;;4991033;28;20042;-67
2024/01/22 05:51:16;;;;;;;15.40;4.25;;;;;;;;;;4987920;28;20049;-68
2024/01/22 05:53:42;;;;;;;23.50;4.80;;;;;;;;;;4992093;28;20066;-68
2024/01/22 05:56:09;;;;;;;21.63;6.07;;;;;;;;;;4989791;28;20046;-67
2024/01/22 05:58:35;;;;;;;17.92;4.75;;;;;;;;;;4992141;28;20502;-68
2024/01/22 06:01:01;;;;;;;14.95;4.80;;;;;;;;;;4991788;28;20042;-68
2024/01/22 06:03:27;;;;;;;19.33;5.13;;;;;;;;;;4987518;28;20052;-68
2024/01/22 06:05:53;;;;;;;21.25;4.88;;;;;;;;;;4986952;28;20104;-68
2024/01/22 06:08:19;;;;;;;27.38;5.18;;;;;;;;;;4989345;28;20101;-68
2024/01/22 06:10:45;;;;;;;22.90;5.18;;;;;;;;;;4991369;28;20449;-68
2024/01/22 06:13:11;;;;;;;32.42;10.20;;;;;;;;;;4990887;28;20050;-68
2024/01/22 06:15:37;;;;;;;25.90;6.15;;;;;;;;;;4994925;28;20096;-68
2024/01/22 06:18:03;;;;;;;34.28;6.88;;;;;;;;;;4994666;28;20054;-68
2024/01/22 06:20:30;;;;;;;25.50;6.55;;;;;;;;;;4988106;28;20050;-68
2024/01/22 06:22:56;;;;;;;28.00;6.68;;;;;;;;;;4979546;28;20306;-68
2024/01/22 06:25:24;;;;;;;21.17;7.47;;;;;;;;;;4985428;28;20038;-68
2024/01/22 06:27:50;;;;;;;36.92;8.18;;;;;;;;;;4984573;28;20046;-68
2024/01/22 06:30:16;;;;;;;38.60;8.77;;;;;;;;;;4985475;28;20122;-68
2024/01/22 06:32:42;;;;;;;32.22;7.80;;;;;;;;;;4982830;28;20401;-68
2024/01/22 06:35:09;;;;;;;33.22;7.78;;;;;;;;;;4985680;28;20039;-68
2024/01/22 06:37:35;;;;;;;39.33;8.40;;;;;;;;;;4982403;28;20046;-68
2024/01/22 06:40:04;;;;;;;36.13;9.30;;;;;;;;;;4978165;28;20117;-68
2024/01/22 06:42:30;;;;;;;35.75;8.40;;;;;;;;;;4981960;28;20078;-68
2024/01/22 06:44:56;;;;;;;45.85;9.52;;;;;;;;;;4980985;28;20034;-68
2024/01/22 06:47:22;;;;;;;41.40;8.13;;;;;;;;;;4985367;28;20109;-67
2024/01/22 06:49:48;;;;;;;41.25;8.90;;;;;;;;;;4990316;28;20822;-67
2024/01/22 06:52:14;;;;;;;40.25;8.18;;;;;;;;;;4984243;28;20053;-67
2024/01/22 06:54:40;;;;;;;37.05;8.85;;;;;;;;;;4977839;28;20073;-68
2024/01/22 06:57:06;;;;;;;42.53;9.07;;;;;;;;;;4978398;28;20054;-68
2024/01/22 06:59:32;;;;;;;41.72;8.48;;;;;;;;;;4978302;28;20046;-68
2024/01/22 07:01:58;;;;;;;47.03;10.85;;;;;;;;;;4975940;28;20050;-68
2024/01/22 07:04:24;;;;;;;40.40;9.75;;;;;;;;;;4980881;28;20434;-68
2024/01/22 07:06:51;;;;;;;42.97;8.85;;;;;;;;;;5011271;28;20045;-68
2024/01/22 07:09:17;;;;;;;51.45;10.13;;;;;;;;;;5009824;28;20791;-68
2024/01/22 07:11:43;;;;;;;53.05;10.88;;;;;;;;;;5013173;28;20360;-68
2024/01/22 07:14:10;;;;;;;49.63;10.18;;;;;;;;;;4977366;28;20053;-68
2024/01/22 07:16:35;;;;;;;57.95;12.50;;;;;;;;;;4979563;28;20046;-68
2024/01/22 07:19:01;;;;;;;47.60;10.75;;;;;;;;;;5010969;28;20058;-68
2024/01/22 07:21:27;;;;;;;54.42;10.65;;;;;;;;;;4973094;28;20054;-68
2024/01/22 07:23:53;;;;;;;48.22;11.00;;;;;;;;;;4980483;28;20483;-68
2024/01/22 07:26:19;;;;;;;49.17;11.32;;;;;;;;;;4980243;28;20089;-67
2024/01/22 07:28:45;;;;;;;45.63;11.07;;;;;;;;;;4979307;28;20406;-68
2024/01/22 07:31:11;;;;;;;36.50;8.27;;;;;;;;;;4979358;28;20042;-68
2024/01/22 07:33:37;;;;;;;33.35;8.23;;;;;;;;;;4985150;28;20133;-67
2024/01/22 07:36:03;;;;;;;21.13;4.63;;;;;;;;;;4980923;28;20370;-67
2024/01/22 07:38:29;;;;;;;31.77;7.07;;;;;;;;;;4979231;28;20048;-68
2024/01/22 07:40:56;;;;;;;23.73;5.78;;;;;;;;;;4986214;28;20046;-67
2024/01/22 07:43:22;;;;;;;29.50;6.53;;;;;;;;;;4978765;28;20046;-67
2024/01/22 07:45:48;;;;;;;27.65;6.40;;;;;;;;;;4979879;28;20043;-67
2024/01/22 07:48:15;;;;;;;26.52;6.50;;;;;;;;;;4983750;28;20050;-68
2024/01/22 07:50:41;;;;;;;36.53;8.85;;;;;;;;;;5011932;28;20050;-68
2024/01/22 07:53:07;;;;;;;37.92;8.68;;;;;;;;;;4981828;28;20054;-68
2024/01/22 07:55:33;;;;;;;39.22;8.82;;;;;;;;;;4979356;28;20098;-68
2024/01/22 07:58:00;;;;;;;36.80;8.48;;;;;;;;;;4984488;28;20097;-67
2024/01/22 08:00:26;;;;;;;36.08;9.23;;;;;;;;;;4980295;28;20129;-67
2024/01/22 08:02:52;;;;;;;38.88;7.40;;;;;;;;;;4980353;28;20054;-68
2024/01/22 08:05:18;;;;;;;42.00;8.35;;;;;;;;;;4981732;28;20046;-67
2024/01/22 08:07:44;;;;;;;33.55;6.18;;;;;;;;;;4978756;28;20053;-68
2024/01/22 08:10:10;;;;;;;29.27;7.22;;;;;;;;;;4982101;28;20046;-67
2024/01/22 08:12:37;;;;;;;28.67;6.72;;;;;;;;;;4981009;28;20105;-67
2024/01/22 08:15:03;;;;;;;31.23;7.10;;;;;;;;;;4986813;28;20050;-67
2024/01/22 08:17:29;;;;;;;34.05;8.27;;;;;;;;;;4979356;28;20050;-68
2024/01/22 08:19:55;;;;;;;45.22;8.63;;;;;;;;;;4983123;28;20047;-67
2024/01/22 08:22:21;;;;;;;51.45;11.38;;;;;;;;;;4985362;28;20395;-68
2024/01/22 08:24:48;;;;;;;66.88;12.95;;;;;;;;;;4986283;28;20112;-68
2024/01/22 08:27:14;;;;;;;51.03;10.80;;;;;;;;;;4985906;28;20065;-68
2024/01/22 08:29:40;;;;;;;51.30;12.32;;;;;;;;;;4986158;28;20046;-68
2024/01/22 08:32:06;;;;;;;60.53;11.25;;;;;;;;;;5019859;28;20522;-68
2024/01/22 08:34:37;;;;;;;76.90;14.77;;;;;;;;;;4985408;28;20100;-68
2024/01/22 08:37:03;;;;;;;54.17;10.88;;;;;;;;;;4984785;28;20054;-68
2024/01/22 08:39:29;;;;;;;66.10;13.80;;;;;;;;;;5015831;28;20104;-68
2024/01/22 08:41:55;;;;;;;66.50;13.10;;;;;;;;;;5020322;28;20050;-68
2024/01/22 08:44:24;;;;;;;70.85;12.75;;;;;;;;;;4983199;28;20073;-68
2024/01/22 08:46:50;;;;;;;73.90;13.93;;;;;;;;;;4985150;28;20145;-68
2024/01/22 08:49:16;;;;;;;66.05;13.75;;;;;;;;;;5013869;28;20580;-68
2024/01/22 08:51:42;;;;;;;78.20;13.65;;;;;;;;;;4994465;28;20082;-67
2024/01/22 08:54:08;;;;;;;60.10;11.77;;;;;;;;;;5006635;28;20037;-67
2024/01/22 08:56:35;;;;;;;77.90;13.15;;;;;;;;;;4999944;28;20050;-67
2024/01/22 08:59:01;;;;;;;68.22;13.77;;;;;;;;;;4995511;28;20058;-68
2024/01/22 09:01:27;;;;;;;72.57;13.15;;;;;;;;;;4993505;28;20130;-67
2024/01/22 09:03:54;;;;;;;52.08;12.18;;;;;;;;;;4993547;28;20502;-67
2024/01/22 09:06:20;;;;;;;58.40;11.98;;;;;;;;;;4987955;28;20054;-67
2024/01/22 09:08:46;;;;;;;61.30;13.07;;;;;;;;;;4990172;28;20114;-68
2024/01/22 09:11:13;;;;;;;76.65;13.77;;;;;;;;;;5018340;28;20495;-68
2024/01/22 09:13:39;;;;;;;70.97;14.40;;;;;;;;;;4992239;28;20125;-68
2024/01/22 09:16:05;;;;;;;63.92;13.20;;;;;;;;;;4993077;28;20097;-69
2024/01/22 09:18:31;;;;;;;71.57;13.98;;;;;;;;;;5026122;28;20078;-68
2024/01/22 09:21:00;;;;;;;69.82;14.25;;;;;;;;;;5023095;28;20085;-67
2024/01/22 09:23:26;;;;;;;74.28;17.30;;;;;;;;;;4989064;28;20129;-67
2024/01/22 09:25:52;;;;;;;58.45;13.77;;;;;;;;;;4990921;28;20046;-68
2024/01/22 09:28:21;;;;;;;42.83;10.55;;;;;;;;;;4989719;28;20050;-67
2024/01/22 09:30:47;;;;;;;63.17;12.25;;;;;;;;;;4993501;28;20046;-67
2024/01/22 09:33:13;;;;;;;52.30;10.35;;;;;;;;;;4995994;28;20117;-67
2024/01/22 09:35:40;;;;;;;47.05;10.73;;;;;;;;;;5022070;28;20407;-67
2024/01/22 09:38:06;;;;;;;55.95;11.48;;;;;;;;;;5027575;28;20046;-68
2024/01/22 09:40:36;;;;;;;52.65;10.77;;;;;;;;;;4987608;28;20042;-67
2024/01/22 09:43:06;;;;;;;44.20;8.13;;;;;;;;;;4992527;28;20061;-68
2024/01/22 09:45:33;;;;;;;42.80;10.60;;;;;;;;;;4992263;28;20445;-68
2024/01/22 09:48:00;;;;;;;46.90;9.20;;;;;;;;;;4995582;28;20053;-67
2024/01/22 09:50:27;;;;;;;31.23;5.13;;;;;;;;;;4989650;28;20038;-67
2024/01/22 09:52:57;;;;;;;31.80;7.78;;;;;;;;;;4995906;28;20046;-67
2024/01/22 09:55:23;;;;;;;29.73;6.15;;;;;;;;;;5018899;28;20057;-67
2024/01/22 09:57:53;;;;;;;29.27;6.50;;;;;;;;;;4989752;28;20697;-67
2024/01/22 10:00:25;;;;;;;21.90;5.22;;;;;;;;;;4993109;28;20046;-67
2024/01/22 10:02:52;;;;;;;30.58;6.38;;;;;;;;;;4987593;28;20126;-67
2024/01/22 10:05:19;;;;;;;27.85;6.82;;;;;;;;;;4991627;28;20475;-67
2024/01/22 10:07:47;;;;;;;28.80;5.78;;;;;;;;;;4987096;28;20046;-67
2024/01/22 10:10:13;;;;;;;30.45;6.40;;;;;;;;;;4987372;28;20084;-67
2024/01/22 10:12:58;;;;;;;32.50;7.68;;;;;;;;;;4986986;28;20048;-68
2024/01/22 10:15:25;;;;;;;31.30;7.22;;;;;;;;;;4988903;28;20047;-67
2024/01/22 10:17:51;;;;;;;35.33;8.18;;;;;;;;;;4989168;28;20533;-67
2024/01/22 10:20:22;;;;;;;38.60;8.45;;;;;;;;;;4988646;28;20406;-67
2024/01/22 10:22:48;;;;;;;38.53;8.50;;;;;;;;;;4983189;28;20521;-67
2024/01/22 10:25:17;;;;;;;40.30;8.60;;;;;;;;;;4983918;28;20046;-67
2024/01/22 10:27:43;;;;;;;35.17;8.88;;;;;;;;;;4986296;28;20057;-67
2024/01/22 10:30:10;;;;;;;46.15;9.32;;;;;;;;;;4986470;28;20069;-67
2024/01/22 10:32:36;;;;;;;31.60;7.20;;;;;;;;;;4987691;28;20038;-67
2024/01/22 10:35:03;;;;;;;35.95;7.65;;;;;;;;;;4988473;28;20499;-67
2024/01/22 10:37:29;;;;;;;27.05;7.00;;;;;;;;;;4982024;28;20097;-68
2024/01/22 10:40:03;;;;;;;32.13;7.10;;;;;;;;;;4990013;28;20042;-68
2024/01/22 10:42:29;;;;;;;31.73;7.95;;;;;;;;;;4985740;28;20426;-67
2024/01/22 10:44:57;;;;;;;29.73;6.90;;;;;;;;;;4982815;28;20065;-67
2024/01/22 10:47:23;;;;;;;33.63;7.15;;;;;;;;;;4988797;28;20069;-67
2024/01/22 10:49:52;;;;;;;34.03;8.05;;;;;;;;;;4989835;28;20046;-67
2024/01/22 10:52:18;;;;;;;39.03;7.30;;;;;;;;;;5017430;28;20053;-67
2024/01/22 10:54:44;;;;;;;35.45;8.55;;;;;;;;;;4989883;28;20129;-67
2024/01/22 10:57:20;;;;;;;27.95;6.75;;;;;;;;;;4983732;28;20561;-67
2024/01/22 10:59:47;;;;;;;34.33;6.18;;;;;;;;;;4985233;28;20046;-67
2024/01/22 11:02:17;;;;;;;42.22;9.45;;;;;;;;;;4985115;28;20439;-67
2024/01/22 11:04:47;;;;;;;36.60;7.22;;;;;;;;;;4984246;28;20112;-67
2024/01/22 11:07:13;;;;;;;26.27;7.30;;;;;;;;;;4983788;28;20469;-67
2024/01/22 11:09:39;;;;;;;31.10;6.35;;;;;;;;;;4988680;28;20498;-67
2024/01/22 11:12:05;;;;;;;31.70;7.15;;;;;;;;;;4982228;28;20085;-67
2024/01/22 11:14:32;;;;;;;34.55;8.07;;;;;;;;;;4988439;28;20057;-67
2024/01/22 11:16:58;;;;;;;29.75;7.47;;;;;;;;;;4987850;28;20065;-67
2024/01/22 11:19:24;;;;;;;28.05;7.97;;;;;;;;;;4989106;28;20139;-67
2024/01/22 11:21:52;;;;;;;29.73;6.38;;;;;;;;;;4985944;28;20077;-67
2024/01/22 11:24:19;;;;;;;27.65;6.15;;;;;;;;;;4978475;28;20503;-68
2024/01/22 11:26:51;;;;;;;30.42;7.85;;;;;;;;;;4987251;28;20046;-67
2024/01/22 11:29:22;;;;;;;26.35;5.47;;;;;;;;;;4983939;28;20064;-67
2024/01/22 11:31:48;;;;;;;32.38;7.18;;;;;;;;;;4985955;28;20065;-67
2024/01/22 11:34:15;;;;;;;34.05;7.32;;;;;;;;;;4981263;28;20042;-67
2024/01/22 11:36:56;;;;;;;37.15;7.35;;;;;;;;;;4986202;28;20117;-67
2024/01/22 11:39:35;;;;;;;29.92;5.95;;;;;;;;;;4984008;28;20065;-67
2024/01/22 11:42:24;;;;;;;34.42;7.07;;;;;;;;;;4985119;28;20053;-68
2024/01/22 11:44:50;;;;;;;26.58;6.53;;;;;;;;;;4984493;28;20054;-67
2024/01/22 11:47:20;;;;;;;29.17;6.35;;;;;;;;;;4990088;28;20058;-67
2024/01/22 11:49:46;;;;;;;37.17;11.00;;;;;;;;;;4983782;28;20046;-67
2024/01/22 11:52:13;;;;;;;29.83;6.00;;;;;;;;;;4989312;28;20050;-67
2024/01/22 11:54:52;;;;;;;28.58;6.55;;;;;;;;;;4987062;28;20069;-67
2024/01/22 11:57:18;;;;;;;26.65;6.63;;;;;;;;;;4984861;28;20046;-67
2024/01/22 11:59:57;;;;;;;27.98;6.22;;;;;;;;;;4987609;28;20125;-67
2024/01/22 12:02:23;;;;;;;27.52;5.70;;;;;;;;;;4983049;28;20053;-67
2024/01/22 12:04:49;;;;;;;27.15;7.18;;;;;;;;;;4990021;28;20077;-67
2024/01/22 12:07:15;;;;;;;30.95;7.45;;;;;;;;;;4990787;28;20474;-67
2024/01/22 12:09:41;;;;;;;24.38;6.18;;;;;;;;;;4984676;28;20145;-67
2024/01/22 12:12:07;;;;;;;27.30;6.13;;;;;;;;;;4986406;28;20124;-67
2024/01/22 12:14:33;;;;;;;31.23;7.00;;;;;;;;;;4991670;28;20050;-67
2024/01/22 12:17:05;;;;;;;26.35;6.93;;;;;;;;;;4986484;28;20046;-67
2024/01/22 12:19:31;;;;;;;32.80;6.57;;;;;;;;;;4986719;28;20422;-67
2024/01/22 12:21:57;;;;;;;28.88;7.95;;;;;;;;;;4990821;28;20113;-67
2024/01/22 12:24:23;;;;;;;26.08;6.22;;;;;;;;;;4993925;28;20034;-67
2024/01/22 12:26:53;;;;;;;30.65;6.88;;;;;;;;;;4988004;28;20053;-67
2024/01/22 12:29:25;;;;;;;24.00;6.82;;;;;;;;;;5022495;28;20038;-67
2024/01/22 12:32:04;;;;;;;26.23;6.63;;;;;;;;;;4990727;28;20096;-67
2024/01/22 12:34:30;;;;;;;24.35;6.28;;;;;;;;;;5024513;28;20303;-67
2024/01/22 12:36:56;;;;;;;32.08;7.43;;;;;;;;;;4991143;28;20049;-67
2024/01/22 12:39:23;;;;;;;26.40;6.60;;;;;;;;;;4990241;28;20054;-66
2024/01/22 12:41:49;;;;;;;25.42;6.78;;;;;;;;;;4982327;28;20137;-67
2024/01/22 12:44:16;;;;;;;24.58;7.25;;;;;;;;;;4989174;28;20121;-67
2024/01/22 12:46:41;;;;;;;33.35;8.88;;;;;;;;;;4988449;28;20045;-67
2024/01/22 12:49:08;;;;;;;31.27;7.07;;;;;;;;;;4988627;28;20042;-67
2024/01/22 12:51:34;;;;;;;40.38;7.35;;;;;;;;;;5018308;28;20043;-68
2024/01/22 12:54:00;;;;;;;38.90;8.40;;;;;;;;;;4989327;28;20054;-67
2024/01/22 12:56:26;;;;;;;39.75;7.20;;;;;;;;;;4988702;28;20042;-68
2024/01/22 12:58:52;;;;;;;33.90;8.68;;;;;;;;;;4983638;28;20081;-66
2024/01/22 13:01:18;;;;;;;29.58;7.40;;;;;;;;;;4989120;28;20121;-67
2024/01/22 13:03:45;;;;;;;36.30;7.88;;;;;;;;;;4991067;28;20128;-68
2024/01/22 13:06:10;;;;;;;30.27;6.97;;;;;;;;;;4987015;28;20049;-67
2024/01/22 13:08:37;;;;;;;34.08;6.57;;;;;;;;;;4985879;28;20038;-68
2024/01/22 13:11:03;;;;;;;28.50;8.23;;;;;;;;;;4984690;28;20379;-67
2024/01/22 13:13:29;;;;;;;27.10;8.48;;;;;;;;;;4989044;28;20292;-67
2024/01/22 13:15:55;;;;;;;34.45;7.82;;;;;;;;;;4989646;28;20073;-67
2024/01/22 13:18:21;;;;;;;33.58;7.60;;;;;;;;;;4990605;28;20108;-68
2024/01/22 13:20:49;;;;;;;25.70;6.90;;;;;;;;;;4986670;28;20483;-67
2024/01/22 13:23:16;;;;;;;38.90;7.70;;;;;;;;;;4984398;28;20042;-68
2024/01/22 13:25:42;;;;;;;24.23;6.88;;;;;;;;;;4987104;28;20138;-67
2024/01/22 13:28:08;;;;;;;37.55;7.18;;;;;;;;;;4988052;28;20429;-67
2024/01/22 13:30:34;;;;;;;35.15;7.63;;;;;;;;;;4985825;28;20053;-68
2024/01/22 13:33:04;;;;;;;28.55;7.57;;;;;;;;;;4991151;28;20122;-68
2024/01/22 13:35:30;;;;;;;29.92;6.60;;;;;;;;;;4987151;28;20139;-68
2024/01/22 13:37:58;;;;;;;24.88;7.13;;;;;;;;;;4991235;28;20085;-68
2024/01/22 13:40:24;;;;;;;33.70;8.48;;;;;;;;;;4991108;28;20414;-68
2024/01/22 13:42:51;;;;;;;32.42;8.48;;;;;;;;;;4982933;28;20483;-68
2024/01/22 13:45:17;;;;;;;25.25;7.63;;;;;;;;;;4990193;28;20039;-67
2024/01/22 13:47:43;;;;;;;29.27;6.82;;;;;;;;;;4988606;28;20054;-67
2024/01/22 13:50:09;;;;;;;31.25;10.15;;;;;;;;;;5020643;28;20058;-68
2024/01/22 13:52:36;;;;;;;35.80;12.80;;;;;;;;;;4991013;28;20037;-67
2024/01/22 13:55:04;;;;;;;25.77;8.65;;;;;;;;;;5018983;28;20046;-67
2024/01/22 13:57:30;;;;;;;30.95;7.55;;;;;;;;;;4987232;28;20051;-67
2024/01/22 13:59:57;;;;;;;39.95;8.70;;;;;;;;;;4993595;28;20049;-68
2024/01/22 14:02:23;;;;;;;34.03;8.65;;;;;;;;;;4991879;28;20125;-68
2024/01/22 14:04:49;;;;;;;30.58;7.20;;;;;;;;;;4990612;28;20387;-68
2024/01/22 14:07:15;;;;;;;28.73;8.18;;;;;;;;;;4994507;28;20049;-68
2024/01/22 14:09:44;;;;;;;22.58;7.70;;;;;;;;;;4984144;28;20541;-67
2024/01/22 14:12:10;;;;;;;33.47;7.75;;;;;;;;;;4985139;28;20053;-67
2024/01/22 14:14:36;;;;;;;27.88;7.50;;;;;;;;;;4989169;28;20072;-68
2024/01/22 14:17:04;;;;;;;42.42;9.05;;;;;;;;;;4991196;28;20494;-69
2024/01/22 14:19:32;;;;;;;30.02;7.68;;;;;;;;;;4989745;28;20050;-68
2024/01/22 14:22:01;;;;;;;28.10;6.95;;;;;;;;;;4989826;28;20551;-68
2024/01/22 14:24:27;;;;;;;33.70;8.30;;;;;;;;;;4991306;28;20039;-68
2024/01/22 14:26:53;;;;;;;36.20;8.10;;;;;;;;;;4989350;28;20112;-69